Time;durP1;ratioP1;P1;durP2;ratioP2;P2;SDS_P1;SDS_P2;PMS_P1;PMS_P2;Temp;Humidity;BMP_temperature;BMP_pressure;BME280_temperature;BME280_humidity;BME280_pressure;Samples;Min_cycle;Max_cycle;Signal;HPM_P1;HPM_P2
2022/05/22 00:02:15;;;;;;;2.70;0.73;;;;;;;25.88;22.68;101316.00;4932891;29;20127;-84
2022/05/22 00:04:43;;;;;;;1.20;0.60;;;;;;;25.93;21.69;101319.44;4932869;29;20083;-85
2022/05/22 00:07:12;;;;;;;3.15;0.88;;;;;;;25.85;19.41;101319.59;4932776;29;20051;-82
2022/05/22 00:09:40;;;;;;;0.98;0.70;;;;;;;25.80;21.21;101315.31;4933379;29;20044;-84
2022/05/22 00:12:12;;;;;;;2.10;0.65;;;;;;;25.79;21.67;101319.72;4933378;29;20553;-84
2022/05/22 00:14:41;;;;;;;1.67;0.52;;;;;;;25.84;20.95;101311.69;4936199;29;20052;-83
2022/05/22 00:17:10;;;;;;;0.80;0.50;;;;;;;25.88;22.04;101318.66;4933400;29;20051;-84
2022/05/22 00:19:41;;;;;;;1.27;0.70;;;;;;;25.90;21.16;101317.72;4933141;29;20107;-86
2022/05/22 00:22:10;;;;;;;0.70;0.60;;;;;;;25.93;22.83;101324.75;4932627;29;20573;-83
2022/05/22 00:24:38;;;;;;;0.70;0.50;;;;;;;25.97;22.71;101323.75;4932585;29;20052;-84
2022/05/22 00:27:07;;;;;;;0.70;0.50;;;;;;;25.98;23.22;101320.19;4932549;29;20673;-82
2022/05/22 00:29:36;;;;;;;1.60;0.60;;;;;;;25.95;22.90;101312.28;4932430;29;20106;-86
2022/05/22 00:32:06;;;;;;;1.08;0.60;;;;;;;25.86;24.15;101321.34;4932622;29;20048;-84
2022/05/22 00:34:34;;;;;;;0.80;0.60;;;;;;;25.84;23.32;101327.59;4936440;29;20540;-85
2022/05/22 00:37:12;;;;;;;0.63;0.60;;;;;;;25.85;23.04;101326.69;4936816;29;20557;-84
2022/05/22 00:39:41;;;;;;;1.80;0.70;;;;;;;25.86;24.99;101316.03;4936355;29;20051;-85
2022/05/22 00:42:16;;;;;;;1.10;0.80;;;;;;;25.81;24.83;101317.91;4935908;29;20080;-85
2022/05/22 00:44:46;;;;;;;1.83;1.00;;;;;;;25.71;24.63;101321.72;4935915;29;20107;-85
2022/05/22 00:47:14;;;;;;;0.93;0.63;;;;;;;25.66;24.18;101324.47;4935951;29;20059;-83
2022/05/22 00:49:44;;;;;;;1.02;0.55;;;;;;;25.65;23.32;101328.03;4936182;29;20055;-83
2022/05/22 00:52:19;;;;;;;1.05;0.50;;;;;;;25.63;25.21;101328.97;4936036;29;20080;-85
2022/05/22 00:54:52;;;;;;;0.93;0.60;;;;;;;25.63;25.97;101334.28;4936110;29;20051;-84
2022/05/22 00:57:23;;;;;;;2.05;0.80;;;;;;;25.57;22.56;101330.00;4935238;29;20054;-83
2022/05/22 00:59:56;;;;;;;0.68;0.50;;;;;;;25.50;23.58;101325.75;4936069;28;20155;-85
2022/05/22 01:02:25;;;;;;;0.75;0.52;;;;;;;25.42;24.06;101330.34;4934897;29;20051;-84
2022/05/22 01:04:53;;;;;;;0.90;0.70;;;;;;;25.29;22.89;101330.66;4937757;29;20537;-81
2022/05/22 01:07:24;;;;;;;1.45;0.50;;;;;;;25.19;23.95;101334.38;4937557;29;20063;-81
2022/05/22 01:09:55;;;;;;;4.22;0.80;;;;;;;25.14;23.59;101332.72;4935270;29;20060;-80
2022/05/22 01:12:25;;;;;;;0.80;0.47;;;;;;;25.06;23.10;101333.75;4935830;29;20655;-81
2022/05/22 01:14:54;;;;;;;1.05;0.60;;;;;;;24.97;23.91;101327.78;4934945;29;20055;-82
2022/05/22 01:17:23;;;;;;;1.65;0.50;;;;;;;24.84;23.94;101322.75;4935721;29;20047;-82
2022/05/22 01:19:59;;;;;;;2.83;1.02;;;;;;;24.92;24.86;101330.53;4935185;29;20107;-81
2022/05/22 01:22:29;;;;;;;0.70;0.50;;;;;;;24.88;24.88;101335.03;4934791;29;20058;-82
2022/05/22 01:24:59;;;;;;;0.68;0.40;;;;;;;24.82;24.14;101329.84;4935363;29;20118;-81
2022/05/22 01:27:28;;;;;;;1.67;0.50;;;;;;;24.77;24.34;101336.16;4935122;29;20063;-84
2022/05/22 01:30:09;;;;;;;0.80;0.55;;;;;;;24.72;24.89;101338.88;4935275;29;20048;-84
2022/05/22 01:32:38;;;;;;;0.95;0.60;;;;;;;24.68;22.70;101337.19;4934750;29;20094;-81
2022/05/22 01:35:07;;;;;;;0.90;0.50;;;;;;;24.60;23.67;101332.06;4934921;29;20048;-81
2022/05/22 01:37:37;;;;;;;1.02;0.50;;;;;;;24.59;25.34;101337.38;4935184;29;20086;-81
2022/05/22 01:40:07;;;;;;;0.70;0.50;;;;;;;24.58;24.53;101340.91;4934786;29;20043;-80
2022/05/22 01:42:36;;;;;;;0.52;0.40;;;;;;;24.55;25.85;101351.56;4934819;29;20107;-81
2022/05/22 01:45:06;;;;;;;2.35;0.50;;;;;;;24.49;25.11;101351.66;4935032;29;20083;-78
2022/05/22 01:47:35;;;;;;;0.85;0.50;;;;;;;24.40;24.29;101348.28;4934556;29;20059;-81
2022/05/22 01:50:04;;;;;;;1.10;0.60;;;;;;;24.35;23.61;101354.53;4935914;29;20078;-82
2022/05/22 01:52:32;;;;;;;1.25;0.50;;;;;;;24.32;25.00;101347.53;4934156;29;20051;-84
2022/05/22 01:55:03;;;;;;;0.80;0.50;;;;;;;24.26;24.55;101355.59;4935077;29;20837;-81
2022/05/22 01:57:31;;;;;;;1.98;0.90;;;;;;;24.11;24.78;101350.56;4937710;29;20055;-81
2022/05/22 02:00:00;;;;;;;1.00;0.50;;;;;;;23.95;23.83;101361.38;4936024;28;20052;-82
2022/05/22 02:02:28;;;;;;;1.48;0.50;;;;;;;23.76;25.04;101359.97;4935046;29;20059;-80
2022/05/22 02:04:57;;;;;;;1.60;0.70;;;;;;;23.57;24.49;101365.50;4934618;29;20055;-83
2022/05/22 02:10:13;;;;;;;1.33;0.70;;;;;;;23.40;26.62;101367.47;4934830;29;20497;-82
2022/05/22 02:12:41;;;;;;;1.33;0.73;;;;;;;23.29;27.62;101369.41;4933060;29;20047;-82
2022/05/22 02:15:10;;;;;;;1.88;0.60;;;;;;;23.20;27.02;101367.75;4933757;29;20055;-83
2022/05/22 02:17:39;;;;;;;1.15;0.60;;;;;;;23.12;28.09;101373.13;4934670;29;20047;-84
2022/05/22 02:20:09;;;;;;;0.63;0.60;;;;;;;23.06;27.66;101375.84;4934462;29;20055;-85
2022/05/22 02:22:42;;;;;;;0.65;0.43;;;;;;;23.02;26.50;101382.06;4935161;29;20127;-83
2022/05/22 02:25:13;;;;;;;1.30;0.80;;;;;;;22.96;27.24;101382.09;4934416;29;20051;-84
2022/05/22 02:27:42;;;;;;;1.73;0.60;;;;;;;22.92;26.87;101383.88;4934359;29;20055;-86
2022/05/22 02:30:12;;;;;;;2.78;1.13;;;;;;;22.90;28.11;101390.09;4935089;29;20048;-85
2022/05/22 02:32:40;;;;;;;1.20;0.57;;;;;;;22.89;28.79;101396.28;4935427;29;20044;-87
2022/05/22 02:35:11;;;;;;;1.58;0.70;;;;;;;22.83;30.49;101397.19;4933987;29;20130;-85
2022/05/22 02:37:42;;;;;;;1.02;0.68;;;;;;;22.72;30.36;101399.97;4935097;29;20048;-85
2022/05/22 02:40:15;;;;;;;1.58;0.68;;;;;;;22.61;31.52;101409.75;4934176;29;20040;-85
2022/05/22 02:42:42;;;;;;;;;;;;;;;22.52;32.41;101417.75;4934839;29;20490;-81
2022/05/22 02:45:12;;;;;;;4.57;0.98;;;;;;;22.43;32.89;101407.28;4933765;29;19977;-82
2022/05/22 02:47:41;;;;;;;2.40;0.80;;;;;;;22.31;33.48;101414.41;4934509;29;20052;-87
2022/05/22 02:50:11;;;;;;;5.40;0.90;;;;;;;22.16;33.90;101409.22;4942074;29;20063;-85
2022/05/22 02:52:40;;;;;;;2.15;0.90;;;;;;;22.09;34.53;101418.09;4935328;29;20130;-85
2022/05/22 02:55:09;;;;;;;2.05;0.90;;;;;;;21.88;35.48;101409.44;4936710;29;20055;-87
2022/05/22 02:57:41;;;;;;;1.65;0.75;;;;;;;21.82;35.90;101427.03;4942034;29;20091;-90
2022/05/22 03:00:15;;;;;;;3.53;0.80;;;;;;;21.70;36.40;101430.63;4943170;28;20035;-90
2022/05/22 03:02:44;;;;;;;1.58;0.85;;;;;;;21.58;36.94;101430.69;4934827;29;20055;-86
2022/05/22 03:05:13;;;;;;;1.27;0.85;;;;;;;21.45;38.08;101436.03;4934411;29;20114;-88
2022/05/22 03:07:42;;;;;;;2.30;0.90;;;;;;;21.34;38.48;101443.91;4933710;29;20051;-86
2022/05/22 03:10:12;;;;;;;2.88;0.82;;;;;;;21.25;38.84;101446.59;4939055;29;20191;-90
2022/05/22 03:12:43;;;;;;;1.80;0.90;;;;;;;21.12;38.65;101453.66;4939439;29;20047;-91
2022/05/22 03:15:14;;;;;;;5.40;1.10;;;;;;;20.98;39.17;101455.47;4922591;29;20063;-89
2022/05/22 03:17:42;;;;;;;1.60;0.95;;;;;;;20.89;39.90;101460.72;4939404;29;20048;-89
2022/05/22 03:20:13;;;;;;;2.08;0.90;;;;;;;20.75;39.90;101459.88;4939043;29;20047;-81
2022/05/22 03:22:41;;;;;;;1.98;0.75;;;;;;;20.60;40.10;101464.28;4935869;29;20502;-86
2022/05/22 03:25:11;;;;;;;4.53;0.80;;;;;;;20.47;40.67;101457.22;4938657;29;20079;-85
2022/05/22 03:27:39;;;;;;;2.75;0.90;;;;;;;20.34;41.06;101455.47;4940951;29;20071;-86
2022/05/22 03:30:11;;;;;;;2.42;0.93;;;;;;;20.22;40.70;101467.72;4938365;29;20099;-85
2022/05/22 03:32:40;;;;;;;3.50;0.80;;;;;;;20.13;41.40;101472.09;4941410;29;20075;-88
2022/05/22 03:35:09;;;;;;;2.95;1.00;;;;;;;20.03;41.41;101465.97;4939881;29;20498;-86
2022/05/22 03:37:38;;;;;;;3.30;1.38;;;;;;;19.87;41.50;101463.31;4939651;29;20052;-87
2022/05/22 03:40:07;;;;;;;4.88;1.33;;;;;;;19.80;42.50;101460.66;4937357;29;20055;-86
2022/05/22 03:42:36;;;;;;;1.35;0.80;;;;;;;19.64;41.65;101467.59;4936913;29;20047;-85
2022/05/22 03:45:05;;;;;;;2.17;0.75;;;;;;;19.52;40.99;101467.56;4935230;29;20047;-83
2022/05/22 03:47:35;;;;;;;1.90;0.73;;;;;;;19.43;41.68;101473.63;4935221;29;20107;-87
2022/05/22 03:50:06;;;;;;;2.17;0.95;;;;;;;19.32;41.60;101470.06;4938624;29;20102;-91
2022/05/22 03:52:36;;;;;;;1.95;0.70;;;;;;;19.19;42.33;101477.00;4939543;29;20052;-85
2022/05/22 03:55:05;;;;;;;1.95;0.82;;;;;;;18.98;41.29;101467.25;4935029;29;20111;-85
2022/05/22 03:57:34;;;;;;;5.45;0.85;;;;;;;18.92;41.08;101481.22;4934982;29;20127;-84
2022/05/22 04:00:05;;;;;;;2.40;1.00;;;;;;;18.84;41.71;101491.63;4937042;28;20059;-84
2022/05/22 04:02:35;;;;;;;1.88;0.60;;;;;;;18.75;41.72;101485.44;4932456;29;20083;-84
2022/05/22 04:05:04;;;;;;;2.55;1.42;;;;;;;18.71;41.77;101488.88;4934772;29;20048;-84
2022/05/22 04:07:38;;;;;;;1.92;1.00;;;;;;;18.65;42.01;101499.34;4935055;29;20130;-86
2022/05/22 04:10:08;;;;;;;2.55;0.90;;;;;;;18.56;41.92;101498.38;4939256;29;20055;-86
2022/05/22 04:12:37;;;;;;;1.27;0.70;;;;;;;18.49;42.29;101501.81;4939732;29;20078;-86
2022/05/22 04:15:08;;;;;;;1.70;0.88;;;;;;;18.41;41.02;101508.72;4955767;29;20078;-87
2022/05/22 04:17:38;;;;;;;3.33;1.05;;;;;;;18.34;42.12;101512.16;4956215;29;20126;-84
2022/05/22 04:20:08;;;;;;;2.78;0.80;;;;;;;18.24;42.70;101515.56;4956097;29;20497;-86
2022/05/22 04:25:11;;;;;;;3.70;0.80;;;;;;;18.12;41.55;101514.56;4954528;29;20165;-86
2022/05/22 04:25:24;;;;;;;2.55;0.80;;;;;;;18.06;41.64;101524.09;4936755;29;20058;-85
2022/05/22 04:27:53;;;;;;;2.67;1.13;;;;;;;17.92;42.77;101526.56;4936583;29;20051;-81
2022/05/22 04:30:22;;;;;;;3.38;0.90;;;;;;;17.84;42.25;101530.81;4936007;29;20126;-82
2022/05/22 04:32:53;;;;;;;3.90;1.05;;;;;;;17.79;42.76;101534.22;4935559;29;20083;-83
2022/05/22 04:35:23;;;;;;;1.53;0.70;;;;;;;17.74;43.16;101538.53;4936499;29;20051;-83
2022/05/22 04:37:51;;;;;;;0.98;0.90;;;;;;;17.67;42.73;101539.31;4938971;29;20055;-80
2022/05/22 04:40:20;;;;;;;1.33;0.82;;;;;;;17.57;42.72;101534.84;4936169;29;20102;-81
2022/05/22 04:42:48;;;;;;;2.05;0.80;;;;;;;17.55;43.57;101539.16;4935740;29;20052;-82
2022/05/22 04:45:17;;;;;;;1.15;0.70;;;;;;;17.50;43.91;101540.81;4936103;29;20075;-83
2022/05/22 04:47:45;;;;;;;2.17;0.90;;;;;;;17.44;43.54;101535.53;4935628;29;20142;-82
2022/05/22 04:50:17;;;;;;;1.27;0.55;;;;;;;17.34;42.40;101537.09;4936030;29;20103;-88
2022/05/22 04:52:45;;;;;;;1.10;0.65;;;;;;;17.33;42.56;101537.97;4937674;29;20119;-85
2022/05/22 04:55:14;;;;;;;1.77;0.90;;;;;;;17.26;42.31;101542.25;4936328;29;20498;-82
2022/05/22 04:57:43;;;;;;;1.58;0.70;;;;;;;17.23;42.62;101547.44;4936063;29;20051;-84
2022/05/22 05:00:13;;;;;;;1.35;0.70;;;;;;;17.16;42.99;101545.59;4936026;28;20057;-82
2022/05/22 05:02:42;;;;;;;1.88;0.82;;;;;;;17.11;43.17;101552.47;4935498;29;20047;-82
2022/05/22 05:05:11;;;;;;;5.55;0.98;;;;;;;17.08;44.15;101542.84;4936243;29;20102;-86
2022/05/22 05:07:43;;;;;;;0.68;0.50;;;;;;;17.02;44.24;101547.09;4936148;29;20084;-80
2022/05/22 05:10:12;;;;;;;2.83;0.75;;;;;;;16.95;42.76;101547.00;4935694;29;20048;-80
2022/05/22 05:12:43;;;;;;;1.65;0.55;;;;;;;16.91;43.36;101539.09;4935496;29;20098;-84
2022/05/22 05:15:15;;;;;;;1.75;0.60;;;;;;;16.88;43.21;101547.78;4935087;29;20070;-82
2022/05/22 05:17:44;;;;;;;2.83;0.60;;;;;;;16.77;43.15;101531.00;4935402;29;20044;-83
2022/05/22 05:20:16;;;;;;;1.25;0.73;;;;;;;16.76;43.08;101543.16;4935367;29;20086;-82
2022/05/22 05:22:46;;;;;;;3.50;0.68;;;;;;;16.72;43.86;101543.09;4935191;29;20530;-83
2022/05/22 05:25:16;;;;;;;2.55;0.73;;;;;;;16.68;42.75;101546.53;4934880;29;20056;-83
2022/05/22 05:27:44;;;;;;;2.50;0.88;;;;;;;16.65;43.72;101543.84;4936108;29;20143;-85
2022/05/22 05:30:14;;;;;;;1.70;0.82;;;;;;;16.63;44.36;101558.59;4936804;29;20102;-83
2022/05/22 05:32:43;;;;;;;1.10;0.60;;;;;;;16.55;44.37;101551.53;4937739;29;20048;-82
2022/05/22 05:35:12;;;;;;;1.92;0.80;;;;;;;16.52;43.32;101550.59;4937517;29;20103;-85
2022/05/22 05:37:41;;;;;;;1.83;0.63;;;;;;;16.51;44.60;101554.91;4936953;29;20450;-84
2022/05/22 05:40:12;;;;;;;1.15;0.60;;;;;;;16.48;44.96;101562.72;4938898;29;20091;-83
2022/05/22 05:42:40;;;;;;;1.30;0.60;;;;;;;16.44;44.54;101563.50;4936888;29;20102;-88
2022/05/22 05:45:11;;;;;;;1.92;0.70;;;;;;;16.43;45.13;101566.13;4936263;29;20047;-89
2022/05/22 05:47:40;;;;;;;1.02;0.70;;;;;;;16.37;44.11;101577.31;4936858;29;20111;-92
2022/05/22 05:50:09;;;;;;;2.35;0.63;;;;;;;16.33;45.34;101575.47;4937516;29;20087;-86
2022/05/22 05:52:38;;;;;;;0.50;0.50;;;;;;;16.30;46.09;101586.75;4936374;29;20048;-85
2022/05/22 05:55:07;;;;;;;1.50;0.82;;;;;;;16.24;45.79;101581.44;4935577;29;20047;-87
2022/05/22 05:57:38;;;;;;;2.55;0.82;;;;;;;16.19;46.55;101595.25;4937837;29;20465;-86
2022/05/22 06:00:09;;;;;;;1.35;0.77;;;;;;;16.13;46.18;101588.19;4935860;28;20576;-88
2022/05/22 06:02:37;;;;;;;3.42;0.60;;;;;;;16.07;45.90;101596.75;4936022;29;20088;-85
2022/05/22 06:05:06;;;;;;;1.52;0.68;;;;;;;16.05;47.97;101600.19;4935757;29;20076;-84
2022/05/22 06:07:35;;;;;;;3.72;0.68;;;;;;;16.01;45.60;101611.41;4935061;29;20059;-82
2022/05/22 06:10:04;;;;;;;2.00;0.73;;;;;;;15.98;45.53;101612.22;4934328;29;20075;-80
2022/05/22 06:12:32;;;;;;;2.35;0.60;;;;;;;15.98;45.55;101612.22;4933727;29;20470;-81
2022/05/22 06:15:02;;;;;;;0.90;0.77;;;;;;;15.89;46.01;101596.38;4934503;29;20578;-81
2022/05/22 06:17:32;;;;;;;2.15;0.70;;;;;;;15.95;45.26;101608.69;4934696;29;20063;-80
2022/05/22 06:20:01;;;;;;;1.55;0.70;;;;;;;15.94;46.28;101613.00;4934202;29;20107;-80
2022/05/22 06:22:31;;;;;;;6.20;1.00;;;;;;;15.86;46.79;101618.06;4933653;29;20115;-80
2022/05/22 06:25:00;;;;;;;1.35;0.60;;;;;;;15.86;47.50;101619.81;4935827;29;20089;-80
2022/05/22 06:27:28;;;;;;;3.10;0.60;;;;;;;15.81;47.69;101617.09;4935900;29;20110;-80
2022/05/22 06:29:57;;;;;;;0.65;0.40;;;;;;;15.75;47.92;101616.06;4933608;29;20059;-81
2022/05/22 06:32:27;;;;;;;2.03;0.50;;;;;;;15.72;48.03;101614.28;4933907;29;20079;-81
2022/05/22 06:34:55;;;;;;;2.17;1.00;;;;;;;15.70;47.34;101614.25;4933880;29;20648;-81
2022/05/22 06:37:24;;;;;;;2.53;0.70;;;;;;;15.64;47.36;101614.06;4934204;29;20110;-82
2022/05/22 06:39:52;;;;;;;4.20;0.82;;;;;;;15.63;46.99;101612.31;4933781;29;20154;-82
2022/05/22 06:42:23;;;;;;;1.90;0.75;;;;;;;15.63;47.48;101616.66;4934000;29;20051;-81
2022/05/22 06:44:57;;;;;;;1.73;0.80;;;;;;;15.60;48.34;101611.34;4933788;29;20059;-82
2022/05/22 06:47:29;;;;;;;2.50;0.73;;;;;;;15.57;49.67;101622.59;4934483;29;20487;-81
2022/05/22 06:49:59;;;;;;;2.53;0.82;;;;;;;15.53;49.53;101619.88;4933669;29;20107;-84
2022/05/22 06:52:28;;;;;;;3.53;1.02;;;;;;;15.48;48.48;101617.16;4934344;29;20115;-82
2022/05/22 06:54:56;;;;;;;0.80;0.60;;;;;;;15.42;48.36;101612.72;4934054;29;20110;-81
2022/05/22 06:57:24;;;;;;;5.40;1.00;;;;;;;15.39;49.54;101617.88;4934406;29;20484;-81
2022/05/22 06:59:56;;;;;;;2.13;0.65;;;;;;;15.33;49.51;101612.50;4933869;28;20071;-81
2022/05/22 07:02:27;;;;;;;2.67;0.60;;;;;;;15.25;48.81;101604.47;4933831;29;20059;-81
2022/05/22 07:04:59;;;;;;;2.07;0.67;;;;;;;15.11;49.07;101594.56;4933637;29;20052;-81
2022/05/22 07:07:28;;;;;;;2.28;0.63;;;;;;;15.12;50.79;101607.66;4933794;29;20058;-81
2022/05/22 07:09:56;;;;;;;1.38;0.93;;;;;;;15.06;50.32;101617.91;4932940;29;20126;-81
2022/05/22 07:12:25;;;;;;;1.63;0.90;;;;;;;15.00;50.86;101617.75;4933364;29;20071;-80
2022/05/22 07:14:55;;;;;;;2.05;0.60;;;;;;;14.95;49.85;101611.56;4933217;29;20146;-81
2022/05/22 07:17:26;;;;;;;1.50;0.73;;;;;;;14.91;51.45;101614.91;4932990;29;20051;-81
2022/05/22 07:19:55;;;;;;;4.45;0.90;;;;;;;14.82;50.42;101618.16;4935141;29;20056;-81
2022/05/22 07:22:24;;;;;;;3.03;0.90;;;;;;;14.78;52.29;101614.59;4934378;29;20047;-81
2022/05/22 07:24:53;;;;;;;2.25;0.80;;;;;;;14.71;51.87;101620.50;4933750;29;20529;-83
2022/05/22 07:27:22;;;;;;;2.30;0.80;;;;;;;14.68;51.28;101625.63;4933232;29;20263;-82
2022/05/22 07:29:51;;;;;;;1.88;0.88;;;;;;;14.64;50.83;101616.84;4932223;29;20457;-82
2022/05/22 07:32:19;;;;;;;1.42;0.52;;;;;;;14.58;53.07;101628.81;4933134;29;20051;-84
2022/05/22 07:34:51;;;;;;;4.10;0.90;;;;;;;14.43;53.79;101622.34;4932212;29;20103;-82
2022/05/22 07:37:19;;;;;;;2.85;0.88;;;;;;;14.43;52.50;101630.16;4933289;29;20043;-81
2022/05/22 07:39:47;;;;;;;0.90;0.60;;;;;;;14.44;51.55;101634.50;4932400;29;20690;-82
2022/05/22 07:42:16;;;;;;;5.22;0.85;;;;;;;14.48;51.81;101640.69;4932688;29;20051;-83
2022/05/22 07:44:44;;;;;;;3.10;0.90;;;;;;;14.49;52.32;101633.75;4932126;29;20083;-82
2022/05/22 07:47:13;;;;;;;3.13;0.95;;;;;;;14.47;53.33;101641.50;4931577;29;20087;-81
2022/05/22 07:52:28;;;;;;;1.85;0.82;;;;;;;14.38;53.13;101642.13;4932090;29;20058;-82
2022/05/22 07:54:58;;;;;;;1.00;0.65;;;;;;;14.37;54.82;101656.00;4932432;29;20127;-81
2022/05/22 07:57:26;;;;;;;1.20;0.70;;;;;;;14.31;53.73;101650.63;4932681;29;20525;-81
2022/05/22 07:59:55;;;;;;;0.85;0.75;;;;;;;14.25;57.71;101653.06;4933147;28;20056;-81
2022/05/22 08:02:23;;;;;;;1.50;0.85;;;;;;;14.15;57.32;101653.63;4932148;29;20079;-82
2022/05/22 08:04:52;;;;;;;3.58;0.73;;;;;;;14.11;57.11;101656.97;4932512;29;20084;-81
2022/05/22 08:07:20;;;;;;;3.08;0.90;;;;;;;14.04;55.68;101656.81;4932326;29;20087;-82
2022/05/22 08:09:52;;;;;;;1.20;0.70;;;;;;;14.04;55.17;101658.50;4931593;29;20450;-81
2022/05/22 08:12:21;;;;;;;7.03;0.80;;;;;;;14.04;55.63;101655.91;4932235;29;20119;-82
2022/05/22 08:14:50;;;;;;;3.90;0.88;;;;;;;14.02;55.54;101665.41;4934164;29;20055;-82
2022/05/22 08:17:21;;;;;;;3.65;1.00;;;;;;;14.00;55.00;101665.34;4935687;29;20051;-81
2022/05/22 08:19:51;;;;;;;2.33;0.70;;;;;;;13.97;57.38;101662.66;4933036;29;20059;-80
2022/05/22 08:22:20;;;;;;;4.13;0.88;;;;;;;13.92;57.22;101669.41;4932672;29;20079;-81
2022/05/22 08:24:50;;;;;;;1.45;0.70;;;;;;;13.89;56.01;101671.94;4932310;29;20079;-82
2022/05/22 08:27:18;;;;;;;3.78;0.80;;;;;;;13.86;55.88;101668.34;4932417;29;20047;-81
2022/05/22 08:29:47;;;;;;;1.98;0.40;;;;;;;13.79;55.89;101670.78;4932093;29;20059;-82
2022/05/22 08:32:15;;;;;;;1.23;0.60;;;;;;;13.69;57.69;101673.03;4932659;29;20130;-80
2022/05/22 08:34:44;;;;;;;2.17;1.23;;;;;;;13.58;57.85;101671.00;4931961;29;20131;-83
2022/05/22 08:37:12;;;;;;;1.15;0.70;;;;;;;13.51;58.42;101668.13;4932658;29;20052;-82
2022/05/22 08:39:41;;;;;;;1.70;0.47;;;;;;;13.44;59.67;101672.25;4932461;29;20086;-81
2022/05/22 08:42:15;;;;;;;0.88;0.70;;;;;;;13.33;59.66;101668.41;4931356;29;20051;-81
2022/05/22 08:44:44;;;;;;;1.33;0.60;;;;;;;13.27;60.28;101669.06;4932794;29;20565;-81
2022/05/22 08:47:22;;;;;;;2.00;0.90;;;;;;;13.25;59.51;101664.66;4932063;29;20055;-80
2022/05/22 08:49:55;;;;;;;1.52;0.60;;;;;;;13.25;59.53;101664.66;4932350;29;20134;-82
2022/05/22 08:52:30;;;;;;;1.10;0.80;;;;;;;13.21;59.12;101661.94;4931385;29;20063;-83
2022/05/22 08:55:05;;;;;;;1.77;0.82;;;;;;;13.15;59.88;101668.69;4935486;29;20470;-83
2022/05/22 09:00:26;;;;;;;2.05;0.40;;;;;;;13.04;61.28;101675.22;4936240;28;20599;-82
2022/05/22 09:03:03;;;;;;;1.23;0.80;;;;;;;13.01;61.47;101670.81;4935095;29;20086;-82
2022/05/22 09:05:33;;;;;;;1.60;0.93;;;;;;;12.97;59.53;101672.41;4935478;29;20548;-82
2022/05/22 09:08:06;;;;;;;1.20;0.80;;;;;;;12.87;60.03;101667.72;4935239;29;20067;-82
2022/05/22 09:10:55;;;;;;;1.55;0.70;;;;;;;12.91;60.53;101673.91;4938299;29;20047;-82
2022/05/22 09:13:33;;;;;;;1.83;1.10;;;;;;;12.90;60.68;101672.16;4936986;29;20387;-82
2022/05/22 09:16:10;;;;;;;3.10;1.05;;;;;;;12.89;60.51;101675.56;4935526;29;20131;-82
2022/05/22 09:18:42;;;;;;;1.38;0.90;;;;;;;12.85;60.77;101673.69;4936285;29;20047;-82
2022/05/22 09:21:19;;;;;;;1.70;1.10;;;;;;;12.78;61.02;101664.78;4935583;29;20486;-83
2022/05/22 09:24:03;;;;;;;2.63;0.80;;;;;;;12.73;61.54;101674.16;4935419;29;20082;-82
2022/05/22 09:26:56;;;;;;;1.48;0.82;;;;;;;12.64;64.85;101671.22;4935740;29;20510;-82
2022/05/22 09:29:52;;;;;;;1.85;0.90;;;;;;;12.57;65.56;101672.72;4935617;29;20114;-82
2022/05/22 09:32:35;;;;;;;3.67;1.13;;;;;;;12.55;64.99;101674.38;4935374;29;20059;-83
2022/05/22 09:35:10;;;;;;;;;;;;;;;12.42;65.05;101659.22;4936205;29;20051;-82
2022/05/22 09:37:50;;;;;;;2.00;0.75;;;;;;;12.49;64.29;101684.56;4935450;29;19923;-82
2022/05/22 09:40:34;;;;;;;3.75;0.90;;;;;;;12.46;65.48;101680.13;4934598;29;20561;-82
2022/05/22 09:43:22;;;;;;;2.85;1.10;;;;;;;12.43;65.80;101690.38;4934908;29;20047;-82
2022/05/22 09:46:04;;;;;;;1.45;0.70;;;;;;;12.41;65.28;101693.75;4935355;29;20421;-80
2022/05/22 09:48:52;;;;;;;2.63;1.10;;;;;;;12.32;64.52;101687.41;4934416;29;20099;-83
2022/05/22 09:51:28;;;;;;;4.82;1.35;;;;;;;12.29;63.64;101695.06;4935091;29;20051;-83
2022/05/22 09:54:15;;;;;;;1.30;0.85;;;;;;;12.25;63.79;101694.91;4934701;29;20106;-82
2022/05/22 09:56:54;;;;;;;1.90;1.30;;;;;;;12.21;63.84;101688.72;4934658;29;20083;-82
2022/05/22 09:59:52;;;;;;;3.45;1.38;;;;;;;12.17;64.09;101697.22;4935561;29;20573;-83
2022/05/22 10:02:28;;;;;;;3.28;1.60;;;;;;;12.12;63.83;101693.56;4895451;29;20048;-83
2022/05/22 10:05:20;;;;;;;2.75;1.50;;;;;;;12.07;64.36;101690.78;4897310;29;20370;-82
2022/05/22 10:07:55;;;;;;;4.13;1.20;;;;;;;12.04;65.66;101705.34;4900708;29;20419;-82
2022/05/22 10:10:32;;;;;;;3.03;1.00;;;;;;;11.99;65.97;101710.34;4897090;29;20052;-82
2022/05/22 10:13:09;;;;;;;4.50;1.00;;;;;;;11.93;65.40;101708.41;4896267;29;20044;-81
2022/05/22 10:15:50;;;;;;;2.83;1.10;;;;;;;11.86;66.53;101719.31;4878788;29;20128;-81
2022/05/22 10:18:37;;;;;;;3.00;1.27;;;;;;;11.77;67.62;101716.34;4878624;29;20102;-81
2022/05/22 10:21:17;;;;;;;1.67;1.05;;;;;;;11.70;68.23;101716.94;4878079;29;20049;-81
2022/05/22 10:24:04;;;;;;;3.35;1.17;;;;;;;11.70;69.56;101719.53;4888592;29;20084;-81
2022/05/22 10:26:44;;;;;;;2.95;1.58;;;;;;;11.66;68.79;101715.94;4903766;29;20107;-82
2022/05/22 10:29:20;;;;;;;1.73;1.00;;;;;;;11.65;71.13;101723.66;4915048;29;20135;-81
2022/05/22 10:31:59;;;;;;;2.35;1.17;;;;;;;11.61;70.73;101721.75;4915399;29;20241;-81
2022/05/22 10:34:39;;;;;;;1.33;0.80;;;;;;;11.58;72.17;101722.50;4915298;29;20107;-80
2022/05/22 10:37:16;;;;;;;1.77;1.10;;;;;;;11.53;72.50;101714.56;4915389;29;20554;-81
2022/05/22 10:39:44;;;;;;;3.17;1.15;;;;;;;11.52;73.22;101715.38;4915224;29;20056;-82
2022/05/22 10:45:32;;;;;;;1.30;0.73;;;;;;;11.47;73.40;101714.28;4875278;29;20056;-81
2022/05/22 10:48:11;;;;;;;1.63;0.77;;;;;;;11.43;72.95;101707.25;4874825;29;20052;-81
2022/05/22 10:50:53;;;;;;;2.42;1.00;;;;;;;11.40;72.91;101714.00;4876643;29;20089;-81
2022/05/22 10:53:33;;;;;;;6.60;1.33;;;;;;;11.36;73.87;101707.81;4876948;29;20068;-82
2022/05/22 10:56:04;;;;;;;6.80;1.25;;;;;;;11.32;74.00;101700.72;4876897;29;20556;-82
2022/05/22 10:58:34;;;;;;;2.92;1.75;;;;;;;11.27;73.19;101700.53;4876872;29;20589;-82
2022/05/22 11:01:04;;;;;;;1.98;1.00;;;;;;;11.25;73.96;101703.88;4897467;29;20142;-82
2022/05/22 11:03:35;;;;;;;1.92;1.23;;;;;;;11.21;75.21;101701.97;4922244;29;20090;-79
2022/05/22 11:06:17;;;;;;;3.60;1.10;;;;;;;11.15;74.92;101701.72;4929240;29;20039;-81
2022/05/22 11:08:50;;;;;;;3.47;0.90;;;;;;;11.11;75.36;101701.59;4930672;29;20485;-82
2022/05/22 11:11:20;;;;;;;1.80;1.10;;;;;;;11.06;75.32;101705.69;4933638;29;20470;-82
2022/05/22 11:13:49;;;;;;;1.73;1.20;;;;;;;11.01;75.76;101694.22;4939423;29;20043;-82
2022/05/22 11:16:19;;;;;;;3.28;1.38;;;;;;;10.99;75.87;101708.81;4952478;28;20051;-81
2022/05/22 11:18:55;;;;;;;1.80;0.95;;;;;;;10.95;76.72;101704.34;4952291;29;20102;-80
2022/05/22 11:21:34;;;;;;;4.55;1.30;;;;;;;10.91;76.77;101712.81;4937281;29;20135;-82
2022/05/22 11:24:15;;;;;;;3.22;1.60;;;;;;;10.86;76.84;101715.19;4933102;29;20486;-81
2022/05/22 11:26:56;;;;;;;2.88;1.20;;;;;;;10.84;75.80;101713.34;4932842;29;20052;-81
2022/05/22 11:29:55;;;;;;;2.65;1.35;;;;;;;10.76;75.70;101713.00;4933322;29;20103;-82
2022/05/22 11:32:34;;;;;;;2.83;1.17;;;;;;;10.72;75.85;101720.56;4927898;29;20055;-82
2022/05/22 11:35:19;;;;;;;2.38;1.25;;;;;;;10.66;75.57;101729.84;4932775;29;20047;-81
2022/05/22 11:38:03;;;;;;;2.20;1.10;;;;;;;10.61;76.54;101733.03;4932492;29;20103;-83
2022/05/22 11:40:36;;;;;;;2.22;1.30;;;;;;;10.57;76.97;101733.72;4932133;29;20044;-83
2022/05/22 11:43:21;;;;;;;3.75;1.13;;;;;;;10.52;76.11;101732.63;4932706;29;20087;-82
2022/05/22 11:45:57;;;;;;;2.08;1.20;;;;;;;10.49;76.75;101741.16;4932863;29;20075;-83
2022/05/22 11:48:47;;;;;;;2.97;1.17;;;;;;;10.43;76.17;101733.97;4933322;29;20087;-83
2022/05/22 11:51:57;;;;;;;4.32;1.80;;;;;;;10.42;76.39;101736.47;4932955;29;20051;-82
2022/05/22 11:54:41;;;;;;;2.60;1.42;;;;;;;10.41;77.43;101735.59;4932557;29;20067;-83
2022/05/22 11:57:31;;;;;;;2.00;1.42;;;;;;;10.41;77.27;101740.78;4932702;29;20103;-82
2022/05/22 12:00:12;;;;;;;5.00;1.55;;;;;;;10.40;78.57;101735.53;4935338;28;20051;-83
2022/05/22 12:02:57;;;;;;;1.27;0.90;;;;;;;10.36;77.79;101733.63;4897179;29;20126;-83